createdAt,value
2022-10-30T00:01:24.908Z,100846.63
2022-10-30T00:03:53.551Z,100873.00
2022-10-30T00:06:25.222Z,100869.28
2022-10-30T00:08:53.738Z,100863.91
2022-10-30T00:11:22.730Z,100868.31
2022-10-30T00:13:51.439Z,100860.03
2022-10-30T00:16:20.134Z,100856.25
2022-10-30T00:18:48.831Z,100839.53
2022-10-30T00:21:18.439Z,100843.56
2022-10-30T00:23:50.514Z,100846.28
2022-10-30T00:26:21.616Z,100850.88
2022-10-30T00:28:51.724Z,100834.28
2022-10-30T00:31:20.894Z,100832.38
2022-10-30T00:33:51.917Z,100825.09
2022-10-30T00:36:21.011Z,100826.03
2022-10-30T00:38:51.432Z,100848.44
2022-10-30T00:41:25.905Z,100848.44
2022-10-30T00:43:57.169Z,100848.34
2022-10-30T00:46:32.170Z,100844.66
2022-10-30T00:49:07.504Z,100838.75
2022-10-30T00:51:38.329Z,100836.81
2022-10-30T00:54:10.607Z,100847.91
2022-10-30T00:56:40.010Z,100836.28
2022-10-30T00:59:14.118Z,100826.66
2022-10-30T01:01:47.526Z,100820.56
2022-10-30T01:04:18.110Z,100830.19
2022-10-30T01:06:52.720Z,100834.91
2022-10-30T01:09:24.099Z,100836.91
2022-10-30T01:11:53.247Z,100826.91
2022-10-30T01:14:23.066Z,100831.72
2022-10-30T01:17:24.410Z,100837.47
2022-10-30T01:20:17.655Z,100828.91
2022-10-30T01:23:01.032Z,100829.72
2022-10-30T01:25:54.319Z,100829.09
2022-10-30T01:28:42.295Z,100833.22
2022-10-30T01:31:31.325Z,100834.19
2022-10-30T01:34:18.284Z,100835.97
2022-10-30T01:36:55.938Z,100838.91
2022-10-30T01:39:30.073Z,100841.88
2022-10-30T01:42:00.058Z,100843.22
2022-10-30T01:44:32.756Z,100841.38
2022-10-30T01:47:18.814Z,100841.66
2022-10-30T01:50:17.870Z,100844.00
2022-10-30T01:52:59.338Z,100849.91
2022-10-30T01:55:41.129Z,100849.22
2022-10-30T01:58:21.090Z,100838.97
2022-10-30T02:00:59.987Z,100848.38
2022-10-30T02:03:29.388Z,100840.13
2022-10-30T02:05:58.230Z,100835.94
2022-10-30T02:08:28.340Z,100836.63
2022-10-30T02:10:57.819Z,100837.22
2022-10-30T02:13:40.686Z,100844.19
2022-10-30T02:16:10.914Z,100844.22
2022-10-30T02:18:40.322Z,100843.63
2022-10-30T02:21:10.559Z,100849.38
2022-10-30T02:23:40.997Z,100839.38
2022-10-30T02:26:09.592Z,100832.69
2022-10-30T02:28:38.097Z,100838.50
2022-10-30T02:31:07.727Z,100837.47
2022-10-30T02:33:36.553Z,100841.38
2022-10-30T02:36:07.435Z,100837.78
2022-10-30T02:38:37.580Z,100833.13
2022-10-30T02:41:06.566Z,100842.09
2022-10-30T02:43:35.256Z,100831.97
2022-10-30T02:46:04.030Z,100829.44
2022-10-30T02:48:32.985Z,100829.72
2022-10-30T02:51:01.675Z,100838.72
2022-10-30T02:53:32.206Z,100849.28
2022-10-30T02:56:07.563Z,100840.50
2022-10-30T02:58:36.506Z,100842.19
2022-10-30T03:01:09.600Z,100835.88
2022-10-30T03:03:39.645Z,100844.81
2022-10-30T03:06:11.838Z,100840.50
2022-10-30T03:08:40.624Z,100853.00
2022-10-30T03:11:14.995Z,100850.34
2022-10-30T03:13:46.077Z,100855.94
2022-10-30T03:16:18.271Z,100857.09
2022-10-30T03:18:48.280Z,100860.03
2022-10-30T03:21:20.857Z,100864.25
2022-10-30T03:23:51.097Z,100861.28
2022-10-30T03:26:21.939Z,100861.63
2022-10-30T03:28:53.788Z,100860.44
2022-10-30T03:31:22.997Z,100873.94
2022-10-30T03:34:09.271Z,100872.09
2022-10-30T03:36:37.843Z,100867.84
2022-10-30T03:39:06.796Z,100866.16
2022-10-30T03:41:37.627Z,100866.38
2022-10-30T03:44:06.331Z,100873.13
2022-10-30T03:46:35.865Z,100882.00
2022-10-30T03:49:22.437Z,100877.34
2022-10-30T03:51:50.972Z,100877.84
2022-10-30T03:54:19.600Z,100872.38
2022-10-30T03:56:49.739Z,100876.06
2022-10-30T03:59:19.363Z,100882.56
2022-10-30T04:02:04.239Z,100881.09
2022-10-30T04:04:32.957Z,100877.06
2022-10-30T04:07:01.985Z,100890.09
2022-10-30T04:09:30.704Z,100877.59
2022-10-30T04:12:00.648Z,100885.94
2022-10-30T04:14:29.352Z,100879.56
2022-10-30T04:16:58.032Z,100881.56
2022-10-30T04:19:26.970Z,100875.53
2022-10-30T04:21:55.726Z,100879.88
2022-10-30T04:24:24.447Z,100875.53
2022-10-30T04:26:56.976Z,100882.94
2022-10-30T04:29:26.876Z,100882.94
2022-10-30T04:31:55.475Z,100878.16
2022-10-30T04:34:24.940Z,100876.59
2022-10-30T04:36:53.668Z,100874.78
2022-10-30T04:39:22.317Z,100866.16
2022-10-30T04:41:55.074Z,100867.06
2022-10-30T04:44:33.849Z,100868.88
2022-10-30T04:47:02.589Z,100857.69
2022-10-30T04:49:31.104Z,100844.63
2022-10-30T04:51:59.646Z,100854.88
2022-10-30T04:54:28.759Z,100850.44
2022-10-30T04:56:57.825Z,100838.22
2022-10-30T04:59:26.540Z,100843.16
2022-10-30T05:01:58.313Z,100854.88
2022-10-30T05:04:26.906Z,100850.53
2022-10-30T05:06:55.668Z,100852.63
2022-10-30T05:09:24.283Z,100849.97
2022-10-30T05:11:54.926Z,100861.06
2022-10-30T05:14:31.368Z,100868.13
2022-10-30T05:17:01.569Z,100864.69
2022-10-30T05:19:30.101Z,100860.97
2022-10-30T05:21:59.293Z,100866.34
2022-10-30T05:24:27.919Z,100865.84
2022-10-30T05:26:59.255Z,100877.78
2022-10-30T05:29:28.107Z,100873.31
2022-10-30T05:31:56.623Z,100875.31
2022-10-30T05:35:01.780Z,100877.72
2022-10-30T05:37:30.623Z,100878.81
2022-10-30T05:39:59.378Z,100886.97
2022-10-30T05:42:30.912Z,100893.72
2022-10-30T05:45:02.948Z,100889.81
2022-10-30T05:47:36.102Z,100898.91
2022-10-30T05:50:07.945Z,100890.47
2022-10-30T05:52:37.835Z,100888.03
2022-10-30T05:55:07.477Z,100890.19
2022-10-30T05:58:01.757Z,100893.38
2022-10-30T06:00:33.778Z,100902.66
2022-10-30T06:03:03.662Z,100895.03
2022-10-30T06:05:37.694Z,100902.66
2022-10-30T06:08:08.758Z,100896.09
2022-10-30T06:10:37.864Z,100892.53
2022-10-30T06:13:12.064Z,100880.19
2022-10-30T06:15:46.882Z,100897.13
2022-10-30T06:18:15.780Z,100888.38
2022-10-30T06:20:51.532Z,100870.56
2022-10-30T06:23:38.556Z,100868.13
2022-10-30T06:26:15.285Z,100867.38
2022-10-30T06:28:46.656Z,100873.94
2022-10-30T06:31:16.577Z,100870.22
2022-10-30T06:33:45.207Z,100862.97
2022-10-30T06:36:17.521Z,100871.53
2022-10-30T06:38:46.262Z,100868.78
2022-10-30T06:41:18.198Z,100877.66
2022-10-30T06:44:00.704Z,100887.94
2022-10-30T06:46:33.699Z,100890.16
2022-10-30T06:49:03.039Z,100896.75
2022-10-30T06:51:34.589Z,100901.22
2022-10-30T06:54:03.370Z,100901.25
2022-10-30T06:56:41.137Z,100898.75
2022-10-30T06:59:28.452Z,100907.78
2022-10-30T07:02:17.892Z,100909.94
2022-10-30T07:04:51.225Z,100908.19
2022-10-30T07:07:21.342Z,100914.59
2022-10-30T07:09:50.011Z,100909.53
2022-10-30T07:12:22.788Z,100912.97
2022-10-30T07:14:57.502Z,100914.66
2022-10-30T07:17:58.267Z,100907.53
2022-10-30T07:20:29.664Z,100904.22
2022-10-30T07:23:00.624Z,100908.69
2022-10-30T07:25:29.329Z,100906.19
2022-10-30T07:28:07.336Z,100902.63
2022-10-30T07:30:39.800Z,100903.72
2022-10-30T07:33:31.506Z,100911.34
2022-10-30T07:36:04.966Z,100909.22
2022-10-30T07:38:54.748Z,100908.69
2022-10-30T07:41:48.920Z,100902.66
2022-10-30T07:44:37.180Z,100904.53
2022-10-30T07:47:28.204Z,100893.41
2022-10-30T07:50:12.223Z,100871.06
2022-10-30T07:52:41.266Z,100893.97
2022-10-30T07:55:13.050Z,100891.81
2022-10-30T07:58:01.827Z,100894.81
2022-10-30T08:01:09.138Z,100902.81
2022-10-30T08:03:38.720Z,100891.53
2022-10-30T08:06:13.615Z,100905.25
2022-10-30T08:08:43.598Z,100900.56
2022-10-30T08:11:42.916Z,100892.59
2022-10-30T08:14:11.800Z,100903.81
2022-10-30T08:16:40.626Z,100908.91
2022-10-30T08:19:10.580Z,100901.88
2022-10-30T08:21:39.474Z,100904.00
2022-10-30T08:24:12.764Z,100910.59
2022-10-30T08:26:46.867Z,100921.31
2022-10-30T08:29:15.580Z,100921.06
2022-10-30T08:31:49.249Z,100910.75
2022-10-30T08:34:23.785Z,100923.44
2022-10-30T08:36:56.589Z,100923.69
2022-10-30T08:39:26.144Z,100934.75
2022-10-30T08:42:00.788Z,100929.88
2022-10-30T08:44:35.732Z,100923.84
2022-10-30T08:47:22.617Z,100929.78
2022-10-30T08:49:52.075Z,100924.03
2022-10-30T08:52:24.019Z,100921.06
2022-10-30T08:54:57.295Z,100930.75
2022-10-30T08:57:30.023Z,100921.38
2022-10-30T08:59:59.396Z,100909.84
2022-10-30T09:02:54.232Z,100909.19
2022-10-30T09:06:01.610Z,100909.16
2022-10-30T09:08:48.688Z,100917.34
2022-10-30T09:11:39.538Z,100919.94
2022-10-30T09:14:09.861Z,100921.94
2022-10-30T09:16:38.487Z,100927.69
2022-10-30T09:19:07.123Z,100928.44
2022-10-30T09:21:35.880Z,100928.81
2022-10-30T09:24:08.040Z,100924.13
2022-10-30T09:26:36.973Z,100919.66
2022-10-30T09:29:20.581Z,100907.41
2022-10-30T09:32:10.057Z,100918.28
2022-10-30T09:34:58.974Z,100927.19
2022-10-30T09:37:30.175Z,100917.66
2022-10-30T09:40:01.522Z,100923.56
2022-10-30T09:42:45.755Z,100929.53
2022-10-30T09:45:48.800Z,100930.03
2022-10-30T09:48:47.474Z,100931.75
2022-10-30T09:51:53.605Z,100941.09
2022-10-30T09:54:49.738Z,100942.63
2022-10-30T09:57:30.384Z,100928.34
2022-10-30T10:00:11.295Z,100925.72
2022-10-30T10:03:04.025Z,100921.59
2022-10-30T10:05:49.471Z,100916.63
2022-10-30T10:08:45.507Z,100911.25
2022-10-30T10:11:54.862Z,100915.03
2022-10-30T10:14:29.151Z,100916.06
2022-10-30T10:17:02.900Z,100926.50
2022-10-30T10:19:39.920Z,100924.59
2022-10-30T10:22:22.151Z,100924.06
2022-10-30T10:24:52.270Z,100928.97
2022-10-30T10:27:40.911Z,100921.75
2022-10-30T10:30:16.825Z,100925.44
2022-10-30T10:33:11.429Z,100925.66
2022-10-30T10:36:05.064Z,100924.44
2022-10-30T10:38:58.460Z,100925.53
2022-10-30T10:41:53.415Z,100930.06
2022-10-30T10:44:39.862Z,100931.56
2022-10-30T10:47:34.001Z,100930.47
2022-10-30T10:50:20.804Z,100924.50
2022-10-30T10:52:58.685Z,100901.75
2022-10-30T10:55:36.359Z,100896.84
2022-10-30T10:58:15.863Z,100910.28
2022-10-30T11:00:46.993Z,100912.97
2022-10-30T11:03:21.627Z,100908.69
2022-10-30T11:05:58.472Z,100908.56
2022-10-30T11:08:30.998Z,100897.91
2022-10-30T11:11:03.164Z,100899.25
2022-10-30T11:13:36.721Z,100898.50
2022-10-30T11:16:22.752Z,100895.22
2022-10-30T11:18:59.173Z,100899.69
2022-10-30T11:21:31.918Z,100894.03
2022-10-30T11:24:02.048Z,100880.41
2022-10-30T11:26:35.940Z,100877.09
2022-10-30T11:29:12.728Z,100883.44
2022-10-30T11:31:44.378Z,100894.25
2022-10-30T11:34:31.813Z,100886.44
2022-10-30T11:37:00.833Z,100902.38
2022-10-30T11:39:34.195Z,100903.97
2022-10-30T11:42:15.868Z,100902.56
2022-10-30T11:44:49.332Z,100911.19
2022-10-30T11:47:21.840Z,100903.50
2022-10-30T11:49:54.826Z,100903.03
2022-10-30T11:52:27.521Z,100906.09
2022-10-30T11:55:01.923Z,100905.56
2022-10-30T11:57:38.764Z,100899.69
2022-10-30T12:00:17.687Z,100905.34
2022-10-30T12:02:51.472Z,100890.72
2022-10-30T12:05:41.639Z,100895.63
2022-10-30T12:08:22.340Z,100882.31
2022-10-30T12:11:06.115Z,100885.94
2022-10-30T12:13:40.540Z,100883.06
2022-10-30T12:16:16.838Z,100884.22
2022-10-30T12:19:01.848Z,100875.13
2022-10-30T12:21:37.955Z,100883.13
2022-10-30T12:24:18.473Z,100884.97
2022-10-30T12:26:54.200Z,100870.16
2022-10-30T12:30:06.666Z,100876.28
2022-10-30T12:32:39.625Z,100877.06
2022-10-30T12:35:22.979Z,100867.38
2022-10-30T12:37:55.841Z,100865.88
2022-10-30T12:40:31.653Z,100861.69
2022-10-30T12:43:17.341Z,100865.31
2022-10-30T12:45:49.552Z,100868.94
2022-10-30T12:48:29.119Z,100871.63
2022-10-30T12:51:18.316Z,100862.88
2022-10-30T12:54:00.525Z,100851.81
2022-10-30T12:56:36.688Z,100865.09
2022-10-30T12:59:28.476Z,100866.13
2022-10-30T13:02:05.823Z,100855.66
2022-10-30T13:04:43.297Z,100857.72
2022-10-30T13:07:24.418Z,100860.78
2022-10-30T13:10:13.314Z,100852.41
2022-10-30T13:12:52.335Z,100846.41
2022-10-30T13:15:27.986Z,100838.50
2022-10-30T13:18:00.306Z,100854.00
2022-10-30T13:20:32.360Z,100838.03
2022-10-30T13:23:11.847Z,100844.56
2022-10-30T13:25:59.680Z,100851.09
2022-10-30T13:28:37.270Z,100846.75
2022-10-30T13:31:22.781Z,100855.97
2022-10-30T13:34:04.159Z,100847.69
2022-10-30T13:36:46.931Z,100852.56
2022-10-30T13:39:32.123Z,100837.22
2022-10-30T13:42:26.486Z,100833.84
2022-10-30T13:45:13.923Z,100852.50
2022-10-30T13:47:57.291Z,100834.94
2022-10-30T13:51:07.769Z,100839.06
2022-10-30T13:53:42.049Z,100827.00
2022-10-30T13:56:17.508Z,100835.31
2022-10-30T13:59:00.201Z,100833.41
2022-10-30T14:01:37.156Z,100831.69
2022-10-30T14:04:16.000Z,100827.13
2022-10-30T14:06:57.331Z,100823.75
2022-10-30T14:09:43.299Z,100813.00
2022-10-30T14:12:51.018Z,100824.91
2022-10-30T14:15:32.889Z,100824.75
2022-10-30T14:18:47.197Z,100824.97
2022-10-30T14:21:40.960Z,100820.25
2022-10-30T14:24:21.161Z,100826.81
2022-10-30T14:26:58.964Z,100817.66
2022-10-30T14:29:52.200Z,100826.91
2022-10-30T14:32:41.356Z,100827.13
2022-10-30T14:35:35.422Z,100828.06
2022-10-30T14:38:29.054Z,100820.72
2022-10-30T14:41:41.570Z,100824.69
2022-10-30T14:44:46.156Z,100825.00
2022-10-30T14:47:55.353Z,100833.66
2022-10-30T14:50:47.842Z,100845.03
2022-10-30T14:53:42.347Z,100829.47
2022-10-30T14:56:28.303Z,100822.53
2022-10-30T14:59:22.434Z,100805.69
2022-10-30T15:02:20.420Z,100814.31
2022-10-30T15:05:26.107Z,100816.97
2022-10-30T15:08:11.304Z,100819.44
2022-10-30T15:11:02.158Z,100819.84
2022-10-30T15:13:31.410Z,100824.13
2022-10-30T15:16:03.130Z,100809.56
2022-10-30T15:18:32.967Z,100808.41
2022-10-30T15:21:08.741Z,100822.03
2022-10-30T15:23:38.550Z,100818.25
2022-10-30T15:26:21.552Z,100823.13
2022-10-30T15:28:53.419Z,100825.63
2022-10-30T15:31:25.500Z,100824.91
2022-10-30T15:33:55.627Z,100830.38
2022-10-30T15:36:28.544Z,100829.13
2022-10-30T15:39:11.184Z,100831.97
2022-10-30T15:41:47.942Z,100828.59
2022-10-30T15:44:21.084Z,100821.09
2022-10-30T15:46:53.187Z,100795.56
2022-10-30T15:49:32.232Z,100813.94
2022-10-30T15:52:03.992Z,100824.94
2022-10-30T15:54:34.781Z,100832.59
2022-10-30T15:57:42.891Z,100817.50
2022-10-30T16:00:00.959Z,100817.19
2022-10-30T16:02:29.927Z,100813.09
2022-10-30T16:04:59.192Z,100805.59
2022-10-30T16:07:30.705Z,100792.06
2022-10-30T16:10:01.722Z,100803.59
2022-10-30T16:12:35.609Z,100801.16
2022-10-30T16:15:10.038Z,100802.63
2022-10-30T16:17:39.040Z,100811.59
2022-10-30T16:20:11.006Z,100815.28
2022-10-30T16:22:41.585Z,100820.25
2022-10-30T16:25:12.920Z,100806.75
2022-10-30T16:27:47.233Z,100814.97
2022-10-30T16:30:17.780Z,100808.19
2022-10-30T16:32:54.707Z,100816.13
2022-10-30T16:35:25.455Z,100821.38
2022-10-30T16:37:55.391Z,100816.66
2022-10-30T16:40:28.560Z,100821.81
2022-10-30T16:43:01.678Z,100819.28
2022-10-30T16:45:51.697Z,100820.22
2022-10-30T16:48:28.697Z,100807.44
2022-10-30T16:51:05.415Z,100821.69
2022-10-30T16:53:34.329Z,100824.50
2022-10-30T16:56:04.129Z,100826.50
2022-10-30T16:58:34.311Z,100830.19
2022-10-30T17:01:07.798Z,100827.44
2022-10-30T17:03:41.103Z,100830.94
2022-10-30T17:06:29.010Z,100838.31
2022-10-30T17:09:01.149Z,100841.13
2022-10-30T17:11:39.970Z,100831.53
2022-10-30T17:14:21.041Z,100837.22
2022-10-30T17:16:59.602Z,100825.78
2022-10-30T17:19:49.551Z,100828.72
2022-10-30T17:22:22.201Z,100828.34
2022-10-30T17:24:51.036Z,100834.69
2022-10-30T17:27:47.535Z,100835.50
2022-10-30T17:30:37.984Z,100842.00
2022-10-30T17:33:27.015Z,100847.44
2022-10-30T17:35:55.882Z,100848.69
2022-10-30T17:38:24.484Z,100846.44
2022-10-30T17:40:53.356Z,100848.41
2022-10-30T17:43:25.715Z,100840.72
2022-10-30T17:45:55.953Z,100844.50
2022-10-30T17:48:28.249Z,100844.75
2022-10-30T17:50:57.266Z,100828.03
2022-10-30T17:53:29.240Z,100843.38
2022-10-30T17:56:04.611Z,100836.50
2022-10-30T17:58:33.488Z,100837.81
2022-10-30T18:01:03.620Z,100839.63
2022-10-30T18:03:32.377Z,100832.66
2022-10-30T18:06:03.255Z,100839.81
2022-10-30T18:08:31.896Z,100820.16
2022-10-30T18:11:00.635Z,100817.81
2022-10-30T18:13:29.260Z,100824.69
2022-10-30T18:15:59.899Z,100823.81
2022-10-30T18:18:29.825Z,100833.78
2022-10-30T18:20:58.681Z,100829.00
2022-10-30T18:26:20.479Z,100832.81
2022-10-30T18:28:49.859Z,100829.63
2022-10-30T18:31:22.520Z,100835.94
2022-10-30T18:33:53.053Z,100832.81
2022-10-30T18:36:24.506Z,100832.00
2022-10-30T18:38:54.565Z,100835.63
2022-10-30T18:41:30.815Z,100833.88
2022-10-30T18:43:59.588Z,100836.69
2022-10-30T18:46:30.624Z,100832.53
2022-10-30T18:49:00.701Z,100834.97
2022-10-30T18:51:29.918Z,100838.66
2022-10-30T18:53:58.518Z,100831.78
2022-10-30T18:56:29.986Z,100832.59
2022-10-30T18:59:02.017Z,100834.41
2022-10-30T19:01:32.781Z,100830.84
2022-10-30T19:04:04.477Z,100825.59
2022-10-30T19:06:34.453Z,100822.28
2022-10-30T19:09:03.409Z,100817.97
2022-10-30T19:11:32.554Z,100827.56
2022-10-30T19:14:01.254Z,100828.41
2022-10-30T19:16:30.314Z,100832.03
2022-10-30T19:18:58.801Z,100828.47
2022-10-30T19:21:31.994Z,100834.50
2022-10-30T19:24:03.703Z,100835.53
2022-10-30T19:26:32.243Z,100836.47
2022-10-30T19:29:01.015Z,100830.44
2022-10-30T19:31:29.534Z,100831.38
2022-10-30T19:33:58.395Z,100834.88
2022-10-30T19:36:31.889Z,100835.63
2022-10-30T19:39:07.483Z,100839.25
2022-10-30T19:41:38.750Z,100832.50
2022-10-30T19:44:07.980Z,100829.97
2022-10-30T19:46:37.912Z,100835.47
2022-10-30T19:49:17.997Z,100828.56
2022-10-30T19:51:48.365Z,100833.16
2022-10-30T19:54:17.095Z,100826.34
2022-10-30T19:56:45.932Z,100828.31
2022-10-30T19:59:16.317Z,100832.91
2022-10-30T20:01:45.433Z,100841.81
2022-10-30T20:04:14.121Z,100841.13
2022-10-30T20:06:42.973Z,100845.63
2022-10-30T20:09:14.099Z,100849.31
2022-10-30T20:11:42.887Z,100853.28
2022-10-30T20:14:11.417Z,100845.66
2022-10-30T20:16:40.378Z,100851.91
2022-10-30T20:19:30.264Z,100849.28
2022-10-30T20:21:59.009Z,100852.94
2022-10-30T20:24:28.930Z,100846.75
2022-10-30T20:26:58.396Z,100854.97
2022-10-30T20:29:27.329Z,100854.22
2022-10-30T20:31:56.067Z,100849.81
2022-10-30T20:34:25.010Z,100855.31
2022-10-30T20:36:53.531Z,100856.34
2022-10-30T20:39:22.177Z,100860.06
2022-10-30T20:41:52.284Z,100856.50
2022-10-30T20:44:20.793Z,100858.72
2022-10-30T20:46:49.383Z,100863.28
2022-10-30T20:49:18.592Z,100860.00
2022-10-30T20:51:48.623Z,100867.19
2022-10-30T20:54:18.124Z,100870.72
2022-10-30T20:56:46.766Z,100862.41
2022-10-30T20:59:16.688Z,100872.75
2022-10-30T21:01:45.592Z,100871.91
2022-10-30T21:04:14.562Z,100866.84
2022-10-30T21:06:43.156Z,100873.94
2022-10-30T21:09:11.909Z,100861.16
2022-10-30T21:11:40.698Z,100855.97
2022-10-30T21:14:09.412Z,100853.44
2022-10-30T21:16:39.540Z,100863.09
2022-10-30T21:19:08.048Z,100852.75
2022-10-30T21:21:36.606Z,100856.31
2022-10-30T21:24:05.771Z,100853.78
2022-10-30T21:26:35.049Z,100852.06
2022-10-30T21:29:03.774Z,100842.69
2022-10-30T21:31:32.919Z,100847.09
2022-10-30T21:34:02.763Z,100844.56
2022-10-30T21:36:31.354Z,100849.97
2022-10-30T21:39:00.413Z,100854.38
2022-10-30T21:41:29.175Z,100845.69
2022-10-30T21:44:00.166Z,100850.13
2022-10-30T21:46:31.980Z,100845.91
2022-10-30T21:49:08.143Z,100852.72
2022-10-30T21:51:36.884Z,100856.47
2022-10-30T21:54:05.551Z,100851.38
2022-10-30T21:56:36.061Z,100850.69
2022-10-30T21:59:06.855Z,100852.63
2022-10-30T22:01:38.336Z,100849.56
2022-10-30T22:04:11.589Z,100852.25
2022-10-30T22:06:42.583Z,100848.09
2022-10-30T22:09:15.768Z,100849.94
2022-10-30T22:11:44.779Z,100840.56
2022-10-30T22:14:13.705Z,100848.34
2022-10-30T22:16:42.295Z,100847.41
2022-10-30T22:19:12.835Z,100846.41
2022-10-30T22:21:41.502Z,100840.31
2022-10-30T22:24:10.703Z,100840.31
2022-10-30T22:26:39.334Z,100837.78
2022-10-30T22:29:08.089Z,100839.72
2022-10-30T22:31:36.704Z,100832.00
2022-10-30T22:34:05.149Z,100838.25
2022-10-30T22:36:35.524Z,100832.16
2022-10-30T22:39:09.836Z,100827.81
2022-10-30T22:41:38.808Z,100834.09
2022-10-30T22:44:09.250Z,100830.53
2022-10-30T22:46:38.484Z,100826.31
2022-10-30T22:49:08.226Z,100827.28
2022-10-30T22:51:40.648Z,100826.59
2022-10-30T22:54:13.133Z,100831.09
2022-10-30T22:56:42.591Z,100827.56
2022-10-30T22:59:14.294Z,100824.94
2022-10-30T23:01:43.901Z,100831.16
2022-10-30T23:04:15.443Z,100829.56
2022-10-30T23:06:45.639Z,100837.34
2022-10-30T23:09:18.790Z,100829.56
2022-10-30T23:11:47.485Z,100830.56
2022-10-30T23:14:16.502Z,100830.69
2022-10-30T23:16:45.010Z,100833.31
2022-10-30T23:19:13.857Z,100831.78
2022-10-30T23:21:42.403Z,100839.72
2022-10-30T23:24:12.479Z,100841.44
2022-10-30T23:26:41.011Z,100844.06
2022-10-30T23:29:09.941Z,100846.06
2022-10-30T23:31:40.992Z,100848.75
2022-10-30T23:34:13.048Z,100844.44
2022-10-30T23:36:42.767Z,100846.22
2022-10-30T23:39:17.158Z,100845.31
2022-10-30T23:41:46.679Z,100836.91
2022-10-30T23:44:17.511Z,100853.31
2022-10-30T23:46:46.234Z,100848.91
2022-10-30T23:49:14.988Z,100850.84
2022-10-30T23:51:43.469Z,100850.97
2022-10-30T23:54:13.578Z,100850.16
2022-10-30T23:56:42.221Z,100852.97
2022-10-30T23:59:11.230Z,100849.53
